sensor_id;sensor_type;location;lat;lon;timestamp;pressure;altitude;pressure_sealevel;temperature;humidity
58668;BME280;59852;43.086;25.634;2022-08-19T00:02:02;98404.69;;;25.06;51.88
58668;BME280;59852;43.086;25.634;2022-08-19T00:04:29;98408.38;;;25.19;51.87
58668;BME280;59852;43.086;25.634;2022-08-19T00:06:55;98416.84;;;25.02;52.28
58668;BME280;59852;43.086;25.634;2022-08-19T00:09:20;98421.44;;;24.49;53.22
58668;BME280;59852;43.086;25.634;2022-08-19T00:11:46;98418.94;;;24.60;53.54
58668;BME280;59852;43.086;25.634;2022-08-19T00:14:12;98415.47;;;24.60;53.83
58668;BME280;59852;43.086;25.634;2022-08-19T00:16:38;98424.09;;;24.69;53.43
58668;BME280;59852;43.086;25.634;2022-08-19T00:19:04;98421.59;;;24.74;53.45
58668;BME280;59852;43.086;25.634;2022-08-19T00:21:29;98412.53;;;24.88;52.75
58668;BME280;59852;43.086;25.634;2022-08-19T00:23:55;98410.72;;;24.69;53.75
58668;BME280;59852;43.086;25.634;2022-08-19T00:26:23;98403.06;;;24.92;53.72
58668;BME280;59852;43.086;25.634;2022-08-19T00:28:49;98416.25;;;24.67;53.75
58668;BME280;59852;43.086;25.634;2022-08-19T00:31:14;98412.78;;;24.47;54.05
58668;BME280;59852;43.086;25.634;2022-08-19T00:33:40;98410.28;;;24.19;53.92
58668;BME280;59852;43.086;25.634;2022-08-19T00:36:06;98406.59;;;24.46;53.85
58668;BME280;59852;43.086;25.634;2022-08-19T00:38:33;98405.56;;;24.47;53.70
58668;BME280;59852;43.086;25.634;2022-08-19T00:40:58;98412.94;;;24.06;54.75
58668;BME280;59852;43.086;25.634;2022-08-19T00:43:24;98409.06;;;24.48;54.60
58668;BME280;59852;43.086;25.634;2022-08-19T00:45:51;98407.41;;;24.27;55.12
58668;BME280;59852;43.086;25.634;2022-08-19T00:48:17;98407.81;;;24.11;55.25
58668;BME280;59852;43.086;25.634;2022-08-19T00:50:43;98405.88;;;23.78;55.52
58668;BME280;59852;43.086;25.634;2022-08-19T00:53:09;98407.44;;;23.53;56.00
58668;BME280;59852;43.086;25.634;2022-08-19T00:55:35;98408.47;;;23.52;55.47
58668;BME280;59852;43.086;25.634;2022-08-19T00:58:04;98409.91;;;23.54;55.85
58668;BME280;59852;43.086;25.634;2022-08-19T01:00:32;98402.09;;;23.53;55.30
58668;BME280;59852;43.086;25.634;2022-08-19T01:02:58;98411.59;;;23.68;55.11
58668;BME280;59852;43.086;25.634;2022-08-19T01:05:25;98415.53;;;23.72;54.64
58668;BME280;59852;43.086;25.634;2022-08-19T01:07:52;98413.06;;;23.71;55.02
58668;BME280;59852;43.086;25.634;2022-08-19T01:10:19;98417.59;;;23.77;55.11
58668;BME280;59852;43.086;25.634;2022-08-19T01:12:45;98416.63;;;24.04;54.93
58668;BME280;59852;43.086;25.634;2022-08-19T01:15:12;98415.34;;;23.74;54.79
58668;BME280;59852;43.086;25.634;2022-08-19T01:17:39;98406.81;;;23.09;56.42
58668;BME280;59852;43.086;25.634;2022-08-19T01:20:06;98407.41;;;23.46;55.85
58668;BME280;59852;43.086;25.634;2022-08-19T01:25:00;98417.84;;;24.09;54.54
58668;BME280;59852;43.086;25.634;2022-08-19T01:27:25;98420.50;;;23.82;54.92
58668;BME280;59852;43.086;25.634;2022-08-19T01:29:51;98418.25;;;23.92;54.30
58668;BME280;59852;43.086;25.634;2022-08-19T01:32:17;98416.56;;;23.71;55.02
58668;BME280;59852;43.086;25.634;2022-08-19T01:34:42;98415.00;;;23.42;55.46
58668;BME280;59852;43.086;25.634;2022-08-19T01:37:12;98423.13;;;23.62;55.60
58668;BME280;59852;43.086;25.634;2022-08-19T01:39:39;98430.16;;;23.83;54.66
58668;BME280;59852;43.086;25.634;2022-08-19T01:42:06;98420.38;;;23.56;55.65
58668;BME280;59852;43.086;25.634;2022-08-19T01:44:32;98425.34;;;23.59;55.29
58668;BME280;59852;43.086;25.634;2022-08-19T01:46:57;98427.00;;;23.60;55.51
58668;BME280;59852;43.086;25.634;2022-08-19T01:49:23;98425.50;;;23.51;55.82
58668;BME280;59852;43.086;25.634;2022-08-19T01:51:50;98430.69;;;23.59;55.39
58668;BME280;59852;43.086;25.634;2022-08-19T01:54:16;98428.34;;;23.49;56.07
58668;BME280;59852;43.086;25.634;2022-08-19T01:56:42;98424.97;;;23.27;56.01
58668;BME280;59852;43.086;25.634;2022-08-19T01:59:13;98427.06;;;23.38;56.47
58668;BME280;59852;43.086;25.634;2022-08-19T02:01:39;98422.97;;;23.36;56.02
58668;BME280;59852;43.086;25.634;2022-08-19T02:04:05;98430.22;;;23.55;55.54
58668;BME280;59852;43.086;25.634;2022-08-19T02:06:31;98431.19;;;23.34;56.85
58668;BME280;59852;43.086;25.634;2022-08-19T02:08:56;98431.97;;;23.28;56.21
58668;BME280;59852;43.086;25.634;2022-08-19T02:11:24;98431.59;;;23.31;56.34
58668;BME280;59852;43.086;25.634;2022-08-19T02:13:51;98441.19;;;23.26;55.99
58668;BME280;59852;43.086;25.634;2022-08-19T02:16:17;98431.44;;;23.05;56.54
58668;BME280;59852;43.086;25.634;2022-08-19T02:18:43;98440.94;;;23.14;56.63
58668;BME280;59852;43.086;25.634;2022-08-19T02:21:09;98444.56;;;23.06;57.36
58668;BME280;59852;43.086;25.634;2022-08-19T02:23:34;98438.81;;;23.03;57.20
58668;BME280;59852;43.086;25.634;2022-08-19T02:25:59;98449.00;;;22.93;57.56
58668;BME280;59852;43.086;25.634;2022-08-19T02:28:25;98452.81;;;22.83;58.10
58668;BME280;59852;43.086;25.634;2022-08-19T02:30:51;98448.34;;;22.84;58.22
58668;BME280;59852;43.086;25.634;2022-08-19T02:33:16;98454.63;;;23.04;57.11
58668;BME280;59852;43.086;25.634;2022-08-19T02:35:42;98452.88;;;22.90;58.19
58668;BME280;59852;43.086;25.634;2022-08-19T02:38:08;98446.34;;;22.93;57.97
58668;BME280;59852;43.086;25.634;2022-08-19T02:40:53;98452.31;;;22.95;58.05
58668;BME280;59852;43.086;25.634;2022-08-19T02:43:19;98449.84;;;22.93;57.87
58668;BME280;59852;43.086;25.634;2022-08-19T02:45:45;98453.41;;;23.07;57.68
58668;BME280;59852;43.086;25.634;2022-08-19T02:48:11;98462.16;;;22.94;57.59
58668;BME280;59852;43.086;25.634;2022-08-19T02:50:39;98462.66;;;22.83;57.46
58668;BME280;59852;43.086;25.634;2022-08-19T02:53:05;98462.31;;;23.21;56.84
58668;BME280;59852;43.086;25.634;2022-08-19T02:55:32;98462.72;;;22.89;57.30
58668;BME280;59852;43.086;25.634;2022-08-19T02:57:57;98464.53;;;22.61;58.31
58668;BME280;59852;43.086;25.634;2022-08-19T03:00:23;98469.84;;;22.82;58.52
58668;BME280;59852;43.086;25.634;2022-08-19T03:02:49;98479.31;;;22.64;59.17
58668;BME280;59852;43.086;25.634;2022-08-19T03:05:14;98477.84;;;22.61;59.48
58668;BME280;59852;43.086;25.634;2022-08-19T03:07:40;98478.00;;;22.53;59.49
58668;BME280;59852;43.086;25.634;2022-08-19T03:10:05;98479.13;;;22.65;59.40
58668;BME280;59852;43.086;25.634;2022-08-19T03:12:31;98474.97;;;21.98;60.35
58668;BME280;59852;43.086;25.634;2022-08-19T03:14:59;98476.78;;;21.76;60.54
58668;BME280;59852;43.086;25.634;2022-08-19T03:17:25;98478.88;;;21.81;60.33
58668;BME280;59852;43.086;25.634;2022-08-19T03:19:51;98476.28;;;21.88;60.01
58668;BME280;59852;43.086;25.634;2022-08-19T03:22:16;98475.84;;;21.84;59.92
58668;BME280;59852;43.086;25.634;2022-08-19T03:24:41;98480.91;;;22.58;58.53
58668;BME280;59852;43.086;25.634;2022-08-19T03:27:08;98479.53;;;21.83;60.07
58668;BME280;59852;43.086;25.634;2022-08-19T03:29:34;98488.66;;;21.59;60.78
58668;BME280;59852;43.086;25.634;2022-08-19T03:32:03;98490.00;;;21.85;60.59
58668;BME280;59852;43.086;25.634;2022-08-19T03:34:30;98482.53;;;21.95;59.97
58668;BME280;59852;43.086;25.634;2022-08-19T03:36:57;98491.38;;;22.17;59.82
58668;BME280;59852;43.086;25.634;2022-08-19T03:39:23;98497.66;;;22.09;59.39
58668;BME280;59852;43.086;25.634;2022-08-19T03:41:50;98507.16;;;22.33;59.05
58668;BME280;59852;43.086;25.634;2022-08-19T03:44:18;98504.78;;;22.45;59.36
58668;BME280;59852;43.086;25.634;2022-08-19T03:46:46;98505.81;;;22.44;59.25
58668;BME280;59852;43.086;25.634;2022-08-19T03:49:12;98521.09;;;22.35;58.82
58668;BME280;59852;43.086;25.634;2022-08-19T03:51:38;98514.34;;;22.18;60.01
58668;BME280;59852;43.086;25.634;2022-08-19T03:54:05;98512.63;;;22.10;60.50
58668;BME280;59852;43.086;25.634;2022-08-19T03:56:30;98519.03;;;22.16;60.59
58668;BME280;59852;43.086;25.634;2022-08-19T03:58:58;98522.97;;;22.20;60.45
58668;BME280;59852;43.086;25.634;2022-08-19T04:01:26;98511.97;;;22.23;60.26
58668;BME280;59852;43.086;25.634;2022-08-19T04:03:52;98521.09;;;22.35;59.75
58668;BME280;59852;43.086;25.634;2022-08-19T04:06:19;98523.88;;;22.27;60.24
58668;BME280;59852;43.086;25.634;2022-08-19T04:08:46;98533.72;;;22.48;59.91
58668;BME280;59852;43.086;25.634;2022-08-19T04:11:12;98538.69;;;22.72;59.34
58668;BME280;59852;43.086;25.634;2022-08-19T04:13:38;98531.16;;;22.61;59.87
58668;BME280;59852;43.086;25.634;2022-08-19T04:16:04;98536.66;;;22.53;59.13
58668;BME280;59852;43.086;25.634;2022-08-19T04:18:30;98537.72;;;22.58;58.71
58668;BME280;59852;43.086;25.634;2022-08-19T04:20:56;98539.56;;;22.58;58.59
58668;BME280;59852;43.086;25.634;2022-08-19T04:23:22;98536.44;;;22.76;58.16
58668;BME280;59852;43.086;25.634;2022-08-19T04:25:47;98538.47;;;22.74;58.41
58668;BME280;59852;43.086;25.634;2022-08-19T04:28:13;98538.16;;;22.62;58.61
58668;BME280;59852;43.086;25.634;2022-08-19T04:30:42;98531.53;;;22.79;58.29
58668;BME280;59852;43.086;25.634;2022-08-19T04:33:08;98532.69;;;22.70;59.09
58668;BME280;59852;43.086;25.634;2022-08-19T04:35:38;98531.63;;;23.14;59.89
58668;BME280;59852;43.086;25.634;2022-08-19T04:38:04;98542.34;;;22.93;59.41
58668;BME280;59852;43.086;25.634;2022-08-19T04:40:30;98534.78;;;22.96;59.63
58668;BME280;59852;43.086;25.634;2022-08-19T04:43:13;98529.50;;;23.03;58.81
58668;BME280;59852;43.086;25.634;2022-08-19T04:45:41;98530.41;;;23.16;59.55
58668;BME280;59852;43.086;25.634;2022-08-19T04:48:08;98530.13;;;23.33;58.09
58668;BME280;59852;43.086;25.634;2022-08-19T04:50:33;98526.28;;;23.48;59.23
58668;BME280;59852;43.086;25.634;2022-08-19T04:52:58;98524.84;;;23.46;58.76
58668;BME280;59852;43.086;25.634;2022-08-19T04:55:24;98533.19;;;23.64;57.31
58668;BME280;59852;43.086;25.634;2022-08-19T04:57:53;98528.06;;;23.63;57.16
58668;BME280;59852;43.086;25.634;2022-08-19T05:00:18;98532.13;;;24.07;56.07
58668;BME280;59852;43.086;25.634;2022-08-19T05:02:43;98537.91;;;24.10;55.18
58668;BME280;59852;43.086;25.634;2022-08-19T05:05:09;98535.84;;;24.12;55.78
58668;BME280;59852;43.086;25.634;2022-08-19T05:07:34;98537.41;;;23.80;57.48
58668;BME280;59852;43.086;25.634;2022-08-19T05:10:00;98540.28;;;23.85;57.45
58668;BME280;59852;43.086;25.634;2022-08-19T05:12:25;98535.38;;;23.95;56.77
58668;BME280;59852;43.086;25.634;2022-08-19T05:14:53;98537.19;;;23.88;56.57
58668;BME280;59852;43.086;25.634;2022-08-19T05:17:19;98533.34;;;23.97;55.60
58668;BME280;59852;43.086;25.634;2022-08-19T05:19:44;98541.94;;;23.52;57.29
58668;BME280;59852;43.086;25.634;2022-08-19T05:22:28;98536.09;;;23.69;56.81
58668;BME280;59852;43.086;25.634;2022-08-19T05:24:57;98533.69;;;23.88;56.46
58668;BME280;59852;43.086;25.634;2022-08-19T05:27:22;98538.69;;;23.97;57.49
58668;BME280;59852;43.086;25.634;2022-08-19T05:29:48;98538.72;;;24.04;56.28
58668;BME280;59852;43.086;25.634;2022-08-19T05:32:13;98537.03;;;23.96;57.24
58668;BME280;59852;43.086;25.634;2022-08-19T05:34:39;98544.22;;;23.89;56.94
58668;BME280;59852;43.086;25.634;2022-08-19T05:37:04;98542.91;;;23.79;56.70
58668;BME280;59852;43.086;25.634;2022-08-19T05:39:32;98548.69;;;23.82;55.60
58668;BME280;59852;43.086;25.634;2022-08-19T05:41:59;98545.25;;;23.95;56.16
58668;BME280;59852;43.086;25.634;2022-08-19T05:44:26;98547.41;;;23.71;56.48
58668;BME280;59852;43.086;25.634;2022-08-19T05:46:52;98544.91;;;24.11;55.59
58668;BME280;59852;43.086;25.634;2022-08-19T05:49:18;98539.19;;;24.27;54.80
58668;BME280;59852;43.086;25.634;2022-08-19T05:51:44;98542.66;;;24.15;56.03
58668;BME280;59852;43.086;25.634;2022-08-19T05:54:10;98540.78;;;24.15;57.07
58668;BME280;59852;43.086;25.634;2022-08-19T05:56:39;98537.97;;;24.30;54.74
58668;BME280;59852;43.086;25.634;2022-08-19T05:59:05;98541.75;;;24.49;56.56
58668;BME280;59852;43.086;25.634;2022-08-19T06:01:35;98542.75;;;24.48;55.71
58668;BME280;59852;43.086;25.634;2022-08-19T06:04:02;98543.38;;;24.50;55.39
58668;BME280;59852;43.086;25.634;2022-08-19T06:06:27;98545.31;;;24.15;54.26
58668;BME280;59852;43.086;25.634;2022-08-19T06:08:53;98539.38;;;23.65;55.85
58668;BME280;59852;43.086;25.634;2022-08-19T06:11:20;98549.25;;;24.19;55.04
58668;BME280;59852;43.086;25.634;2022-08-19T06:13:47;98549.53;;;24.57;53.33
58668;BME280;59852;43.086;25.634;2022-08-19T06:16:14;98541.97;;;24.74;52.73
58668;BME280;59852;43.086;25.634;2022-08-19T06:18:49;98546.31;;;24.88;53.24
58668;BME280;59852;43.086;25.634;2022-08-19T06:21:17;98544.38;;;24.36;53.39
58668;BME280;59852;43.086;25.634;2022-08-19T06:23:42;98545.28;;;24.89;52.37
58668;BME280;59852;43.086;25.634;2022-08-19T06:26:11;98539.09;;;24.82;51.70
58668;BME280;59852;43.086;25.634;2022-08-19T06:28:36;98536.84;;;24.79;51.76
58668;BME280;59852;43.086;25.634;2022-08-19T06:31:07;98546.31;;;25.21;51.21
58668;BME280;59852;43.086;25.634;2022-08-19T06:33:32;98530.59;;;25.44;51.12
58668;BME280;59852;43.086;25.634;2022-08-19T06:35:57;98535.34;;;25.49;52.18
58668;BME280;59852;43.086;25.634;2022-08-19T06:38:23;98534.88;;;25.65;50.92
58668;BME280;59852;43.086;25.634;2022-08-19T06:40:48;98536.31;;;25.68;51.03
58668;BME280;59852;43.086;25.634;2022-08-19T06:43:13;98532.81;;;25.81;50.86
58668;BME280;59852;43.086;25.634;2022-08-19T06:45:40;98532.78;;;25.87;50.82
58668;BME280;59852;43.086;25.634;2022-08-19T06:48:06;98538.75;;;25.89;51.35
58668;BME280;59852;43.086;25.634;2022-08-19T06:50:32;98535.41;;;25.94;50.64
58668;BME280;59852;43.086;25.634;2022-08-19T06:52:57;98537.69;;;25.97;52.92
58668;BME280;59852;43.086;25.634;2022-08-19T06:55:23;98531.91;;;25.93;50.65
58668;BME280;59852;43.086;25.634;2022-08-19T06:57:48;98524.88;;;25.99;50.77
58668;BME280;59852;43.086;25.634;2022-08-19T07:00:18;98532.94;;;25.99;51.53
58668;BME280;59852;43.086;25.634;2022-08-19T07:02:43;98523.91;;;26.25;51.25
58668;BME280;59852;43.086;25.634;2022-08-19T07:05:09;98529.44;;;26.37;50.72
58668;BME280;59852;43.086;25.634;2022-08-19T07:07:34;98529.03;;;26.40;50.56
58668;BME280;59852;43.086;25.634;2022-08-19T07:10:00;98521.91;;;26.52;50.84
58668;BME280;59852;43.086;25.634;2022-08-19T07:12:27;98525.00;;;26.55;51.34
58668;BME280;59852;43.086;25.634;2022-08-19T07:14:52;98522.00;;;26.70;50.23
58668;BME280;59852;43.086;25.634;2022-08-19T07:17:18;98518.44;;;26.76;49.82
58668;BME280;59852;43.086;25.634;2022-08-19T07:19:45;98517.97;;;26.86;50.05
58668;BME280;59852;43.086;25.634;2022-08-19T07:22:10;98516.19;;;27.05;49.42
58668;BME280;59852;43.086;25.634;2022-08-19T07:24:36;98511.78;;;27.10;49.56
58668;BME280;59852;43.086;25.634;2022-08-19T07:27:03;98515.66;;;27.14;49.66
58668;BME280;59852;43.086;25.634;2022-08-19T07:29:30;98515.88;;;27.13;48.42
58668;BME280;59852;43.086;25.634;2022-08-19T07:31:56;98520.66;;;27.11;47.36
58668;BME280;59852;43.086;25.634;2022-08-19T07:34:22;98526.31;;;27.21;49.08
58668;BME280;59852;43.086;25.634;2022-08-19T07:36:47;98523.59;;;27.46;48.25
58668;BME280;59852;43.086;25.634;2022-08-19T07:39:14;98523.31;;;27.36;47.85
58668;BME280;59852;43.086;25.634;2022-08-19T07:41:39;98532.34;;;27.60;47.78
58668;BME280;59852;43.086;25.634;2022-08-19T07:44:05;98524.81;;;27.68;47.42
58668;BME280;59852;43.086;25.634;2022-08-19T07:46:32;98529.09;;;27.76;46.88
58668;BME280;59852;43.086;25.634;2022-08-19T07:48:58;98530.56;;;27.90;47.19
58668;BME280;59852;43.086;25.634;2022-08-19T07:51:25;98531.81;;;28.06;46.73
58668;BME280;59852;43.086;25.634;2022-08-19T07:53:51;98525.84;;;28.04;46.45
58668;BME280;59852;43.086;25.634;2022-08-19T07:56:17;98528.44;;;28.11;46.31
58668;BME280;59852;43.086;25.634;2022-08-19T07:58:43;98533.34;;;28.32;46.04
58668;BME280;59852;43.086;25.634;2022-08-19T08:01:13;98526.22;;;28.38;45.79
58668;BME280;59852;43.086;25.634;2022-08-19T08:03:39;98521.00;;;28.43;45.42
58668;BME280;59852;43.086;25.634;2022-08-19T08:06:23;98514.94;;;28.59;46.23
58668;BME280;59852;43.086;25.634;2022-08-19T08:09:07;98513.44;;;28.63;44.91
58668;BME280;59852;43.086;25.634;2022-08-19T08:11:36;98510.03;;;28.68;44.36
58668;BME280;59852;43.086;25.634;2022-08-19T08:14:01;98512.06;;;28.72;45.16
58668;BME280;59852;43.086;25.634;2022-08-19T08:16:27;98508.00;;;28.51;43.55
58668;BME280;59852;43.086;25.634;2022-08-19T08:18:56;98513.78;;;28.67;43.03
58668;BME280;59852;43.086;25.634;2022-08-19T08:21:21;98512.41;;;28.76;43.93
58668;BME280;59852;43.086;25.634;2022-08-19T08:23:47;98513.31;;;28.70;44.11
58668;BME280;59852;43.086;25.634;2022-08-19T08:26:12;98505.47;;;28.68;44.66
58668;BME280;59852;43.086;25.634;2022-08-19T08:28:39;98510.31;;;28.90;43.85
58668;BME280;59852;43.086;25.634;2022-08-19T08:31:05;98507.06;;;28.99;44.20
58668;BME280;59852;43.086;25.634;2022-08-19T08:33:30;98507.19;;;29.04;43.86
58668;BME280;59852;43.086;25.634;2022-08-19T08:35:55;98509.28;;;29.14;42.61
58668;BME280;59852;43.086;25.634;2022-08-19T08:38:21;98512.31;;;29.29;43.34
58668;BME280;59852;43.086;25.634;2022-08-19T08:40:48;98505.66;;;29.32;42.19
58668;BME280;59852;43.086;25.634;2022-08-19T08:43:27;98504.16;;;29.12;40.41
58668;BME280;59852;43.086;25.634;2022-08-19T08:46:00;98508.59;;;29.30;41.56
58668;BME280;59852;43.086;25.634;2022-08-19T08:51:12;98505.06;;;29.41;39.31
58668;BME280;59852;43.086;25.634;2022-08-19T08:53:40;98503.91;;;29.26;40.85
58668;BME280;59852;43.086;25.634;2022-08-19T08:56:08;98497.56;;;29.32;41.11
58668;BME280;59852;43.086;25.634;2022-08-19T08:58:49;98492.28;;;29.49;40.11
58668;BME280;59852;43.086;25.634;2022-08-19T09:01:16;98493.47;;;29.41;40.08
58668;BME280;59852;43.086;25.634;2022-08-19T09:03:42;98491.47;;;29.48;41.14
58668;BME280;59852;43.086;25.634;2022-08-19T09:06:29;98495.44;;;29.57;40.04
58668;BME280;59852;43.086;25.634;2022-08-19T09:11:36;98476.56;;;29.57;40.06
58668;BME280;59852;43.086;25.634;2022-08-19T09:14:27;98475.69;;;29.80;39.49
58668;BME280;59852;43.086;25.634;2022-08-19T09:16:57;98489.88;;;29.76;39.34
58668;BME280;59852;43.086;25.634;2022-08-19T09:19:22;98483.31;;;29.83;41.35
58668;BME280;59852;43.086;25.634;2022-08-19T09:21:48;98479.78;;;29.83;39.96
58668;BME280;59852;43.086;25.634;2022-08-19T09:24:14;98484.00;;;29.79;40.09
58668;BME280;59852;43.086;25.634;2022-08-19T09:26:39;98482.56;;;29.88;40.28
58668;BME280;59852;43.086;25.634;2022-08-19T09:29:05;98483.16;;;29.90;40.27
58668;BME280;59852;43.086;25.634;2022-08-19T09:31:31;98475.59;;;30.04;39.72
58668;BME280;59852;43.086;25.634;2022-08-19T09:33:57;98473.44;;;30.17;40.44
58668;BME280;59852;43.086;25.634;2022-08-19T09:36:23;98473.63;;;30.27;40.64
58668;BME280;59852;43.086;25.634;2022-08-19T09:38:50;98484.03;;;30.36;40.14
58668;BME280;59852;43.086;25.634;2022-08-19T09:41:17;98475.69;;;30.20;40.07
58668;BME280;59852;43.086;25.634;2022-08-19T09:43:45;98477.25;;;30.33;39.62
58668;BME280;59852;43.086;25.634;2022-08-19T09:46:10;98473.78;;;30.38;39.06
58668;BME280;59852;43.086;25.634;2022-08-19T09:48:36;98464.59;;;30.50;38.44
58668;BME280;59852;43.086;25.634;2022-08-19T09:51:03;98466.78;;;30.53;40.29
58668;BME280;59852;43.086;25.634;2022-08-19T09:53:29;98472.44;;;30.52;40.65
58668;BME280;59852;43.086;25.634;2022-08-19T09:55:54;98470.13;;;30.44;39.94
58668;BME280;59852;43.086;25.634;2022-08-19T09:58:20;98460.09;;;30.39;39.87
58668;BME280;59852;43.086;25.634;2022-08-19T10:00:45;98470.88;;;30.56;38.53
58668;BME280;59852;43.086;25.634;2022-08-19T10:03:11;98462.72;;;30.51;38.13
58668;BME280;59852;43.086;25.634;2022-08-19T10:05:36;98468.41;;;30.54;38.86
58668;BME280;59852;43.086;25.634;2022-08-19T10:08:18;98479.78;;;30.40;39.30
58668;BME280;59852;43.086;25.634;2022-08-19T10:10:44;98470.38;;;30.42;38.27
58668;BME280;59852;43.086;25.634;2022-08-19T10:13:11;98467.59;;;30.54;38.24
58668;BME280;59852;43.086;25.634;2022-08-19T10:15:36;98461.69;;;30.69;38.33
58668;BME280;59852;43.086;25.634;2022-08-19T10:18:04;98463.69;;;30.62;37.47
58668;BME280;59852;43.086;25.634;2022-08-19T10:20:30;98469.41;;;30.48;37.44
58668;BME280;59852;43.086;25.634;2022-08-19T10:22:55;98456.28;;;30.69;37.59
58668;BME280;59852;43.086;25.634;2022-08-19T10:25:21;98463.22;;;30.65;37.02
58668;BME280;59852;43.086;25.634;2022-08-19T10:27:46;98457.16;;;30.74;38.06
58668;BME280;59852;43.086;25.634;2022-08-19T10:30:11;98456.84;;;30.71;37.35
58668;BME280;59852;43.086;25.634;2022-08-19T10:32:37;98443.91;;;30.90;38.73
58668;BME280;59852;43.086;25.634;2022-08-19T10:35:03;98441.00;;;30.96;38.01
58668;BME280;59852;43.086;25.634;2022-08-19T10:37:30;98441.63;;;30.81;37.74
58668;BME280;59852;43.086;25.634;2022-08-19T10:39:57;98446.88;;;31.10;39.05
58668;BME280;59852;43.086;25.634;2022-08-19T10:42:22;98437.16;;;31.09;37.58
58668;BME280;59852;43.086;25.634;2022-08-19T10:44:48;98438.09;;;30.98;37.85
58668;BME280;59852;43.086;25.634;2022-08-19T10:47:13;98438.59;;;31.17;37.63
58668;BME280;59852;43.086;25.634;2022-08-19T10:49:39;98449.59;;;31.10;37.28
58668;BME280;59852;43.086;25.634;2022-08-19T10:52:25;98447.88;;;31.21;36.33
58668;BME280;59852;43.086;25.634;2022-08-19T10:55:00;98430.84;;;31.20;37.40
58668;BME280;59852;43.086;25.634;2022-08-19T10:57:44;98429.66;;;31.55;36.92
58668;BME280;59852;43.086;25.634;2022-08-19T11:00:09;98418.63;;;31.18;36.46
58668;BME280;59852;43.086;25.634;2022-08-19T11:02:35;98431.09;;;31.40;36.11
58668;BME280;59852;43.086;25.634;2022-08-19T11:05:00;98413.81;;;31.42;35.79
58668;BME280;59852;43.086;25.634;2022-08-19T11:07:26;98422.88;;;31.52;38.02
58668;BME280;59852;43.086;25.634;2022-08-19T11:09:51;98425.81;;;31.51;35.09
58668;BME280;59852;43.086;25.634;2022-08-19T11:12:17;98420.13;;;31.47;35.34
58668;BME280;59852;43.086;25.634;2022-08-19T11:14:42;98425.31;;;31.54;35.95
58668;BME280;59852;43.086;25.634;2022-08-19T11:17:08;98427.44;;;31.52;35.89
58668;BME280;59852;43.086;25.634;2022-08-19T11:19:33;98415.63;;;31.36;35.41
58668;BME280;59852;43.086;25.634;2022-08-19T11:21:59;98419.84;;;31.71;35.13
58668;BME280;59852;43.086;25.634;2022-08-19T11:24:26;98423.59;;;31.69;34.04
58668;BME280;59852;43.086;25.634;2022-08-19T11:26:53;98416.97;;;31.77;34.15
58668;BME280;59852;43.086;25.634;2022-08-19T11:29:21;98418.09;;;32.08;34.65
58668;BME280;59852;43.086;25.634;2022-08-19T11:31:50;98419.34;;;32.01;34.70
58668;BME280;59852;43.086;25.634;2022-08-19T11:34:18;98423.25;;;32.15;35.78
58668;BME280;59852;43.086;25.634;2022-08-19T11:36:44;98428.19;;;31.91;35.10
58668;BME280;59852;43.086;25.634;2022-08-19T11:39:11;98403.00;;;32.17;37.50
58668;BME280;59852;43.086;25.634;2022-08-19T11:41:37;98412.88;;;32.02;34.85
58668;BME280;59852;43.086;25.634;2022-08-19T11:44:03;98406.72;;;31.57;35.91
58668;BME280;59852;43.086;25.634;2022-08-19T11:46:29;98412.41;;;31.17;36.59
58668;BME280;59852;43.086;25.634;2022-08-19T11:48:56;98407.16;;;30.89;36.80
58668;BME280;59852;43.086;25.634;2022-08-19T11:51:23;98405.94;;;30.79;38.08
58668;BME280;59852;43.086;25.634;2022-08-19T11:53:49;98409.06;;;30.71;36.52
58668;BME280;59852;43.086;25.634;2022-08-19T11:56:15;98401.28;;;30.75;36.90
58668;BME280;59852;43.086;25.634;2022-08-19T11:58:41;98398.06;;;31.17;35.38
58668;BME280;59852;43.086;25.634;2022-08-19T12:01:09;98399.97;;;31.60;34.96
58668;BME280;59852;43.086;25.634;2022-08-19T12:03:36;98390.38;;;31.74;33.42
58668;BME280;59852;43.086;25.634;2022-08-19T12:06:03;98381.97;;;31.71;32.75
58668;BME280;59852;43.086;25.634;2022-08-19T12:08:28;98380.88;;;31.93;31.86
58668;BME280;59852;43.086;25.634;2022-08-19T12:10:54;98388.63;;;32.12;33.20
58668;BME280;59852;43.086;25.634;2022-08-19T12:13:19;98393.47;;;32.10;31.12
58668;BME280;59852;43.086;25.634;2022-08-19T12:15:46;98390.41;;;32.01;32.07
58668;BME280;59852;43.086;25.634;2022-08-19T12:18:12;98386.09;;;32.05;30.90
58668;BME280;59852;43.086;25.634;2022-08-19T12:20:39;98370.28;;;31.87;30.95
58668;BME280;59852;43.086;25.634;2022-08-19T12:23:06;98365.34;;;32.11;31.55
58668;BME280;59852;43.086;25.634;2022-08-19T12:25:32;98374.41;;;32.27;32.66
58668;BME280;59852;43.086;25.634;2022-08-19T12:27:58;98370.84;;;32.21;31.57
58668;BME280;59852;43.086;25.634;2022-08-19T12:30:23;98366.97;;;32.12;33.76
58668;BME280;59852;43.086;25.634;2022-08-19T12:32:49;98371.75;;;32.05;33.55
58668;BME280;59852;43.086;25.634;2022-08-19T12:35:16;98363.66;;;32.05;34.39
58668;BME280;59852;43.086;25.634;2022-08-19T12:37:41;98364.00;;;32.13;33.97
58668;BME280;59852;43.086;25.634;2022-08-19T12:40:09;98361.81;;;31.78;35.67
58668;BME280;59852;43.086;25.634;2022-08-19T12:42:36;98366.50;;;31.88;36.01
58668;BME280;59852;43.086;25.634;2022-08-19T12:45:03;98368.31;;;31.82;33.72
58668;BME280;59852;43.086;25.634;2022-08-19T12:47:28;98358.81;;;32.07;34.91
58668;BME280;59852;43.086;25.634;2022-08-19T12:49:55;98359.53;;;32.29;34.23
58668;BME280;59852;43.086;25.634;2022-08-19T12:52:25;98357.31;;;32.21;33.35
58668;BME280;59852;43.086;25.634;2022-08-19T12:54:52;98366.03;;;32.28;33.45
58668;BME280;59852;43.086;25.634;2022-08-19T12:57:19;98358.56;;;32.40;32.88